Port Gibson, New York
Current Conditions -  °F | °C
As of 12:54 PM on Friday 24 Oct 2014 (Local Time) from KROC Reporting Station
Few Clouds Few Clouds  
Wind Chill: 14°   Ceiling: Unl
Heat Index: 14°   Visibility: 10mi
Dew Point:   Wind: 13mph
Humidity: 51%   Direction: 280°W
Pressure: 29.96"   Gusts: NA
Location:  43.03°N, 77.16°W
Report Text: KROC 241654Z 28011KT 10SM FEW180 14/04 A2996 RMK AO2 SLP149 T01440044
Loading
Personal Weather Stations






























Interactive Weather Map
Tropical Storm Tracking
New forecast layout! Learn more

10-Day Weather Forecast

Advertisements
Track Severe Weather on mobile